createdAt,value
2018-02-04T00:00:09.376Z,0.00
2018-02-04T00:01:14.883Z,0.00
2018-02-04T00:02:20.862Z,0.00
2018-02-04T00:03:27.332Z,0.00
2018-02-04T00:04:33.318Z,0.00
2018-02-04T00:05:39.318Z,0.00
2018-02-04T00:06:44.854Z,0.00
2018-02-04T00:07:50.842Z,0.00
2018-02-04T00:08:56.792Z,0.00
2018-02-04T00:10:02.777Z,0.00
2018-02-04T00:11:09.303Z,0.00
2018-02-04T00:12:15.292Z,0.00
2018-02-04T00:13:21.287Z,0.00
2018-02-04T00:14:26.758Z,0.00
2018-02-04T00:15:33.251Z,0.00
2018-02-04T00:16:38.758Z,0.00
2018-02-04T00:17:44.750Z,0.00
2018-02-04T00:18:51.255Z,0.00
2018-02-04T00:19:56.711Z,0.00
2018-02-04T00:21:03.224Z,0.00
2018-02-04T00:22:08.729Z,0.00
2018-02-04T00:23:15.226Z,0.00
2018-02-04T00:24:20.714Z,0.00
2018-02-04T00:25:27.212Z,0.00
2018-02-04T00:26:33.226Z,0.00
2018-02-04T00:27:39.193Z,0.00
2018-02-04T00:28:45.219Z,0.00
2018-02-04T00:29:51.190Z,0.00
2018-02-04T00:30:57.196Z,0.00
2018-02-04T00:32:03.159Z,0.00
2018-02-04T00:33:09.213Z,0.00
2018-02-04T00:34:15.168Z,0.00
2018-02-04T00:35:20.663Z,0.00
2018-02-04T00:36:27.179Z,0.00
2018-02-04T00:37:33.173Z,0.00
2018-02-04T00:38:39.210Z,0.00
2018-02-04T00:39:45.162Z,0.00
2018-02-04T00:40:51.185Z,0.00
2018-02-04T00:41:57.194Z,0.00
2018-02-04T00:43:03.213Z,0.00
2018-02-04T00:44:08.958Z,0.00
2018-02-04T00:45:15.170Z,0.00
2018-02-04T00:46:20.653Z,0.00
2018-02-04T00:47:27.161Z,0.00
2018-02-04T00:48:33.254Z,0.00
2018-02-04T00:49:39.155Z,0.00
2018-02-04T00:50:45.232Z,0.00
2018-02-04T00:51:50.654Z,0.00
2018-02-04T00:52:56.681Z,0.00
2018-02-04T00:54:03.161Z,0.00
2018-02-04T00:55:09.214Z,0.00
2018-02-04T00:56:15.189Z,0.00
2018-02-04T00:57:20.630Z,0.00
2018-02-04T00:58:27.208Z,0.00
2018-02-04T00:59:32.630Z,0.00
2018-02-04T01:00:39.177Z,0.00
2018-02-04T01:01:45.167Z,0.00
2018-02-04T01:02:51.196Z,0.00
2018-02-04T01:03:56.631Z,0.00
2018-02-04T01:05:03.176Z,0.00
2018-02-04T01:06:08.657Z,0.00
2018-02-04T01:07:14.622Z,0.00
2018-02-04T01:08:21.226Z,0.00
2018-02-04T01:09:27.180Z,0.00
2018-02-04T01:10:33.173Z,0.00
2018-02-04T01:11:39.175Z,0.00
2018-02-04T01:12:44.618Z,0.00
2018-02-04T01:13:51.189Z,0.00
2018-02-04T01:14:56.621Z,0.00
2018-02-04T01:16:03.199Z,0.00
2018-02-04T01:17:09.228Z,0.00
2018-02-04T01:18:15.178Z,0.00
2018-02-04T01:19:20.633Z,0.00
2018-02-04T01:20:27.156Z,0.00
2018-02-04T01:21:33.187Z,0.00
2018-02-04T01:22:39.197Z,0.00
2018-02-04T01:23:44.693Z,0.00
2018-02-04T01:24:50.635Z,0.00
2018-02-04T01:25:56.672Z,0.00
2018-02-04T01:27:03.172Z,0.00
2018-02-04T01:28:09.181Z,0.00
2018-02-04T01:29:14.698Z,0.00
2018-02-04T01:30:20.655Z,0.00
2018-02-04T01:31:26.691Z,0.00
2018-02-04T01:32:33.192Z,0.00
2018-02-04T01:33:39.208Z,0.00
2018-02-04T01:34:44.694Z,0.00
2018-02-04T01:35:51.164Z,0.00
2018-02-04T01:36:56.670Z,0.00
2018-02-04T01:38:02.712Z,0.00
2018-02-04T01:39:08.675Z,0.00
2018-02-04T01:40:14.705Z,0.00
2018-02-04T01:41:20.722Z,0.00
2018-02-04T01:42:27.200Z,0.00
2018-02-04T01:43:33.277Z,0.00
2018-02-04T01:44:38.731Z,0.00
2018-02-04T01:45:45.266Z,0.00
2018-02-04T01:46:50.759Z,0.00
2018-02-04T01:47:56.734Z,0.00
2018-02-04T01:49:03.263Z,0.00
2018-02-04T01:50:09.227Z,0.00
2018-02-04T01:51:14.755Z,0.00
2018-02-04T01:52:21.260Z,0.00
2018-02-04T01:53:27.282Z,0.00
2018-02-04T01:54:33.306Z,0.00
2018-02-04T01:55:38.779Z,0.00
2018-02-04T01:56:44.809Z,0.00
2018-02-04T01:57:51.281Z,0.00
2018-02-04T01:58:57.382Z,0.00
2018-02-04T02:00:02.833Z,0.00
2018-02-04T02:01:09.334Z,0.00
2018-02-04T02:02:14.840Z,0.00
2018-02-04T02:03:21.382Z,0.00
2018-02-04T02:04:26.829Z,0.00
2018-02-04T02:05:33.347Z,0.00
2018-02-04T02:06:38.890Z,0.00
2018-02-04T02:07:45.367Z,0.00
2018-02-04T02:08:51.394Z,0.00
2018-02-04T02:09:57.378Z,0.00
2018-02-04T02:11:02.894Z,0.00
2018-02-04T02:12:09.422Z,0.00
2018-02-04T02:13:15.439Z,0.00
2018-02-04T02:14:20.957Z,0.00
2018-02-04T02:15:26.954Z,0.00
2018-02-04T02:16:33.461Z,0.00
2018-02-04T02:17:39.549Z,0.00
2018-02-04T02:18:45.524Z,0.00
2018-02-04T02:19:51.474Z,0.00
2018-02-04T02:20:57.515Z,0.00
2018-02-04T02:22:03.512Z,0.00
2018-02-04T02:23:09.518Z,0.00
2018-02-04T02:24:15.610Z,0.00
2018-02-04T02:25:26.736Z,0.00
2018-02-04T02:26:35.305Z,0.00
2018-02-04T02:27:41.330Z,0.00
2018-02-04T02:28:47.375Z,0.00
2018-02-04T02:29:53.838Z,0.00
2018-02-04T02:30:59.836Z,0.00
2018-02-04T02:32:05.846Z,0.00
2018-02-04T02:33:11.445Z,0.00
2018-02-04T02:34:17.969Z,0.00
2018-02-04T02:35:23.891Z,0.00
2018-02-04T02:36:29.418Z,0.00
2018-02-04T02:37:35.921Z,0.00
2018-02-04T02:38:41.960Z,0.00
2018-02-04T02:39:47.948Z,0.00
2018-02-04T02:40:54.006Z,0.00
2018-02-04T02:41:59.999Z,0.00
2018-02-04T02:43:05.990Z,0.00
2018-02-04T02:44:11.590Z,0.00
2018-02-04T02:45:17.509Z,0.00
2018-02-04T02:46:24.069Z,0.00
2018-02-04T02:47:30.049Z,0.00
2018-02-04T02:48:35.590Z,0.00
2018-02-04T02:49:42.104Z,0.00
2018-02-04T02:50:48.088Z,0.00
2018-02-04T02:51:54.095Z,0.00
2018-02-04T02:53:00.123Z,0.00
2018-02-04T02:54:06.144Z,0.00
2018-02-04T02:55:11.656Z,0.00
2018-02-04T02:56:18.152Z,0.00
2018-02-04T02:57:24.192Z,0.00
2018-02-04T02:58:30.209Z,0.00
2018-02-04T02:59:35.715Z,0.00
2018-02-04T03:00:42.231Z,0.00
2018-02-04T03:01:48.297Z,0.00
2018-02-04T03:02:54.226Z,0.00
2018-02-04T03:04:00.257Z,0.00
2018-02-04T03:05:05.765Z,0.00
2018-02-04T03:06:12.273Z,0.00
2018-02-04T03:07:18.331Z,0.00
2018-02-04T03:08:23.830Z,0.00
2018-02-04T03:09:29.884Z,0.00
2018-02-04T03:10:36.324Z,0.00
2018-02-04T03:11:42.367Z,0.00
2018-02-04T03:12:47.910Z,0.00
2018-02-04T03:13:53.955Z,0.00
2018-02-04T03:15:00.369Z,0.00
2018-02-04T03:16:06.371Z,0.00
2018-02-04T03:17:11.991Z,0.00
2018-02-04T03:18:18.453Z,0.00
2018-02-04T03:19:24.447Z,0.00
2018-02-04T03:20:30.480Z,0.00
2018-02-04T03:21:36.470Z,0.00
2018-02-04T03:22:42.494Z,0.00
2018-02-04T03:23:48.520Z,0.00
2018-02-04T03:24:54.576Z,0.00
2018-02-04T03:26:00.512Z,0.00
2018-02-04T03:27:06.548Z,0.00
2018-02-04T03:28:12.062Z,0.00
2018-02-04T03:29:18.071Z,0.00
2018-02-04T03:30:25.179Z,0.00
2018-02-04T03:31:30.115Z,0.00
2018-02-04T03:32:36.605Z,0.00
2018-02-04T03:33:42.670Z,0.00
2018-02-04T03:34:48.663Z,0.00
2018-02-04T03:35:54.668Z,0.00
2018-02-04T03:37:00.159Z,0.00
2018-02-04T03:38:06.672Z,0.00
2018-02-04T03:39:12.235Z,0.00
2018-02-04T03:40:18.738Z,0.00
2018-02-04T03:41:24.743Z,0.00
2018-02-04T03:42:30.734Z,0.00
2018-02-04T03:43:36.256Z,0.00
2018-02-04T03:44:42.751Z,0.00
2018-02-04T03:45:48.838Z,0.00
2018-02-04T03:46:54.790Z,0.00
2018-02-04T03:48:00.846Z,0.00
2018-02-04T03:49:06.833Z,0.00
2018-02-04T03:50:12.915Z,0.00
2018-02-04T03:51:18.845Z,0.00
2018-02-04T03:52:24.366Z,0.00
2018-02-04T03:53:30.378Z,0.00
2018-02-04T03:54:36.907Z,0.00
2018-02-04T03:55:42.408Z,0.00
2018-02-04T03:56:48.917Z,0.00
2018-02-04T03:57:54.920Z,0.00
2018-02-04T03:59:00.979Z,0.00
2018-02-04T04:00:07.013Z,0.00
2018-02-04T04:01:13.013Z,0.00
2018-02-04T04:02:18.985Z,0.00
2018-02-04T04:03:25.026Z,0.00
2018-02-04T04:04:31.028Z,0.00
2018-02-04T04:05:36.527Z,0.00
2018-02-04T04:06:43.020Z,0.00
2018-02-04T04:07:49.110Z,0.00
2018-02-04T04:08:54.593Z,0.00
2018-02-04T04:10:00.586Z,0.00
2018-02-04T04:11:06.832Z,0.00
2018-02-04T04:12:13.161Z,0.00
2018-02-04T04:13:18.625Z,0.00
2018-02-04T04:14:24.648Z,0.00
2018-02-04T04:15:30.660Z,0.00
2018-02-04T04:16:37.184Z,0.00
2018-02-04T04:17:43.205Z,0.00
2018-02-04T04:18:48.715Z,0.00
2018-02-04T04:19:54.719Z,0.00
2018-02-04T04:21:00.726Z,0.00
2018-02-04T04:22:07.232Z,0.00
2018-02-04T04:23:12.796Z,0.00
2018-02-04T04:24:19.261Z,0.00
2018-02-04T04:25:26.232Z,0.00
2018-02-04T04:26:31.268Z,0.00
2018-02-04T04:27:37.294Z,0.00
2018-02-04T04:28:43.308Z,0.00
2018-02-04T04:29:49.363Z,0.00
2018-02-04T04:32:01.377Z,0.00
2018-02-04T04:33:06.829Z,0.00
2018-02-04T04:34:12.888Z,0.00
2018-02-04T04:35:19.364Z,0.00
2018-02-04T04:36:24.870Z,0.00
2018-02-04T04:37:31.367Z,0.00
2018-02-04T04:38:36.910Z,0.00
2018-02-04T04:39:43.453Z,0.00
2018-02-04T04:40:49.448Z,0.00
2018-02-04T04:41:55.441Z,0.00
2018-02-04T04:43:01.453Z,0.00
2018-02-04T04:44:07.028Z,0.00
2018-02-04T04:45:12.962Z,0.00
2018-02-04T04:46:19.786Z,0.00
2018-02-04T04:47:25.016Z,0.00
2018-02-04T04:48:31.487Z,0.00
2018-02-04T04:49:37.540Z,0.00
2018-02-04T04:50:43.015Z,0.00
2018-02-04T04:51:49.543Z,0.00
2018-02-04T04:52:55.030Z,0.00
2018-02-04T04:54:01.559Z,0.00
2018-02-04T04:55:07.577Z,0.00
2018-02-04T04:56:13.597Z,0.00
2018-02-04T04:57:19.180Z,0.00
2018-02-04T04:58:25.636Z,0.00
2018-02-04T04:59:31.667Z,0.00
2018-02-04T05:00:37.636Z,0.00
2018-02-04T05:01:43.653Z,0.00
2018-02-04T05:02:49.699Z,0.00
2018-02-04T05:03:55.680Z,0.00
2018-02-04T05:05:01.663Z,0.00
2018-02-04T05:06:07.720Z,0.00
2018-02-04T05:07:13.238Z,0.00
2018-02-04T05:08:19.240Z,0.00
2018-02-04T05:09:25.230Z,0.00
2018-02-04T05:10:31.259Z,0.00
2018-02-04T05:11:37.733Z,0.00
2018-02-04T05:12:43.741Z,0.00
2018-02-04T05:13:49.746Z,0.00
2018-02-04T05:14:55.785Z,0.00
2018-02-04T05:16:01.340Z,0.00
2018-02-04T05:17:07.807Z,0.00
2018-02-04T05:18:13.297Z,0.00
2018-02-04T05:19:19.883Z,0.00
2018-02-04T05:20:25.865Z,0.00
2018-02-04T05:21:31.844Z,0.00
2018-02-04T05:22:37.856Z,0.00
2018-02-04T05:23:43.953Z,0.00
2018-02-04T05:24:49.390Z,0.00
2018-02-04T05:25:56.887Z,0.00
2018-02-04T05:27:01.468Z,0.00
2018-02-04T05:28:07.987Z,0.00
2018-02-04T05:29:13.467Z,0.00
2018-02-04T05:30:19.930Z,0.00
2018-02-04T05:31:25.971Z,0.00
2018-02-04T05:32:32.008Z,0.00
2018-02-04T05:33:37.977Z,0.00
2018-02-04T05:34:44.040Z,0.00
2018-02-04T05:35:50.079Z,0.00
2018-02-04T05:36:55.538Z,0.00
2018-02-04T05:38:01.583Z,0.00
2018-02-04T05:39:07.601Z,0.00
2018-02-04T05:40:14.064Z,0.00
2018-02-04T05:41:19.603Z,0.00
2018-02-04T05:42:26.149Z,0.00
2018-02-04T05:43:32.146Z,0.00
2018-02-04T05:44:37.645Z,0.00
2018-02-04T05:45:44.127Z,0.00
2018-02-04T05:46:50.229Z,0.00
2018-02-04T05:47:56.178Z,0.00
2018-02-04T05:49:02.260Z,0.00
2018-02-04T05:50:07.783Z,0.00
2018-02-04T05:51:13.733Z,0.00
2018-02-04T05:52:19.786Z,0.00
2018-02-04T05:53:26.306Z,0.00
2018-02-04T05:54:32.330Z,0.00
2018-02-04T05:55:37.814Z,0.00
2018-02-04T05:56:43.771Z,0.00
2018-02-04T05:57:50.339Z,0.00
2018-02-04T05:58:56.482Z,0.00
2018-02-04T06:00:02.391Z,0.00
2018-02-04T06:01:07.874Z,0.00
2018-02-04T06:02:14.337Z,0.00
2018-02-04T06:03:19.956Z,0.00
2018-02-04T06:04:26.436Z,0.00
2018-02-04T06:06:38.525Z,0.00
2018-02-04T06:07:43.959Z,0.00
2018-02-04T06:09:56.022Z,0.00
2018-02-04T06:11:02.097Z,0.00
2018-02-04T06:12:08.505Z,0.00
2018-02-04T06:13:14.024Z,0.00
2018-02-04T06:14:20.559Z,0.00
2018-02-04T06:15:26.061Z,0.00
2018-02-04T06:16:32.038Z,0.00
2018-02-04T06:17:38.641Z,0.00
2018-02-04T06:18:44.617Z,0.00
2018-02-04T06:19:50.642Z,0.00
2018-02-04T06:20:56.647Z,0.00
2018-02-04T06:22:02.135Z,0.00
2018-02-04T06:23:08.723Z,0.00
2018-02-04T06:24:14.697Z,0.00
2018-02-04T06:25:20.166Z,0.00
2018-02-04T06:26:26.178Z,0.00
2018-02-04T06:27:32.737Z,0.00
2018-02-04T06:28:38.251Z,0.00
2018-02-04T06:29:44.748Z,0.00
2018-02-04T06:30:50.758Z,0.00
2018-02-04T06:31:56.791Z,0.00
2018-02-04T06:33:02.356Z,0.00
2018-02-04T06:34:08.832Z,0.00
2018-02-04T06:35:14.353Z,0.00
2018-02-04T06:36:20.818Z,0.00
2018-02-04T06:37:26.843Z,0.00
2018-02-04T06:38:32.340Z,0.00
2018-02-04T06:39:38.935Z,0.00
2018-02-04T06:40:44.880Z,0.00
2018-02-04T06:41:50.449Z,0.00
2018-02-04T06:42:56.386Z,0.00
2018-02-04T06:44:02.423Z,0.00
2018-02-04T06:45:08.922Z,0.00
2018-02-04T06:46:14.921Z,0.00
2018-02-04T06:47:20.959Z,0.00
2018-02-04T06:48:26.934Z,0.00
2018-02-04T06:49:32.503Z,0.00
2018-02-04T06:50:38.958Z,0.00
2018-02-04T06:51:44.997Z,0.00
2018-02-04T06:52:51.006Z,0.00
2018-02-04T06:53:57.003Z,0.00
2018-02-04T06:55:02.561Z,0.00
2018-02-04T06:56:09.037Z,0.00
2018-02-04T06:57:15.022Z,0.00
2018-02-04T06:58:21.047Z,0.00
2018-02-04T06:59:27.067Z,0.00
2018-02-04T07:00:32.550Z,0.00
2018-02-04T07:01:39.189Z,0.00
2018-02-04T07:02:44.580Z,0.00
2018-02-04T07:03:51.207Z,0.00
2018-02-04T07:04:56.618Z,0.00
2018-02-04T07:06:02.601Z,0.00
2018-02-04T07:07:09.160Z,0.00
2018-02-04T07:08:15.187Z,0.00
2018-02-04T07:09:20.672Z,0.00
2018-02-04T07:10:26.664Z,0.00
2018-02-04T07:11:33.164Z,5.63
2018-02-04T07:12:38.718Z,5.63
2018-02-04T07:13:45.229Z,5.63
2018-02-04T07:14:51.760Z,5.63
2018-02-04T07:15:57.236Z,5.63
2018-02-04T07:17:03.190Z,5.63
2018-02-04T07:18:08.738Z,5.63
2018-02-04T07:19:15.265Z,5.63
2018-02-04T07:20:21.354Z,11.25
2018-02-04T07:21:27.298Z,11.25
2018-02-04T07:22:33.301Z,11.25
2018-02-04T07:23:39.818Z,11.25
2018-02-04T07:24:45.274Z,11.25
2018-02-04T07:25:51.252Z,11.25
2018-02-04T07:26:57.286Z,11.25
2018-02-04T07:28:03.295Z,11.25
2018-02-04T07:29:09.344Z,11.25
2018-02-04T07:30:15.323Z,11.25
2018-02-04T07:31:21.302Z,16.88
2018-02-04T07:32:27.320Z,16.88
2018-02-04T07:33:32.826Z,16.88
2018-02-04T07:34:39.343Z,16.88
2018-02-04T07:35:45.359Z,16.88
2018-02-04T07:36:51.353Z,16.88
2018-02-04T07:37:57.353Z,16.88
2018-02-04T07:39:03.351Z,16.88
2018-02-04T07:40:09.412Z,22.50
2018-02-04T07:41:14.912Z,22.50
2018-02-04T07:42:21.415Z,22.50
2018-02-04T07:43:26.914Z,28.13
2018-02-04T07:44:33.439Z,28.13
2018-02-04T07:45:38.912Z,28.13
2018-02-04T07:46:45.418Z,28.13
2018-02-04T07:47:51.435Z,28.13
2018-02-04T07:48:57.440Z,28.13
2018-02-04T07:50:03.478Z,28.13
2018-02-04T07:51:09.469Z,28.13
2018-02-04T07:52:15.485Z,28.13
2018-02-04T07:53:20.981Z,28.13
2018-02-04T07:54:26.997Z,28.13
2018-02-04T07:55:33.575Z,28.13
2018-02-04T07:56:39.006Z,28.13
2018-02-04T07:57:45.540Z,28.13
2018-02-04T07:58:51.040Z,28.13
2018-02-04T07:59:57.557Z,28.13
2018-02-04T08:01:03.559Z,28.13
2018-02-04T08:02:09.551Z,28.13
2018-02-04T08:03:15.565Z,33.75
2018-02-04T08:04:21.089Z,33.75
2018-02-04T08:05:27.205Z,33.75
2018-02-04T08:06:33.640Z,33.75
2018-02-04T08:07:39.130Z,33.75
2018-02-04T08:08:45.613Z,33.75
2018-02-04T08:09:52.164Z,39.38
2018-02-04T08:10:57.637Z,39.38
2018-02-04T08:12:03.143Z,39.38
2018-02-04T08:13:09.676Z,39.38
2018-02-04T08:14:15.666Z,39.38
2018-02-04T08:15:21.205Z,45.00
2018-02-04T08:16:27.717Z,45.00
2018-02-04T08:17:33.708Z,45.00
2018-02-04T08:18:40.699Z,50.63
2018-02-04T08:19:45.263Z,50.63
2018-02-04T08:20:51.790Z,50.63
2018-02-04T08:21:57.235Z,56.25
2018-02-04T08:23:03.244Z,56.25
2018-02-04T08:24:09.264Z,61.88
2018-02-04T08:25:15.789Z,67.50
2018-02-04T08:26:21.288Z,67.50
2018-02-04T08:27:27.797Z,67.50
2018-02-04T08:28:33.346Z,73.13
2018-02-04T08:29:39.852Z,67.50
2018-02-04T08:30:45.354Z,67.50
2018-02-04T08:31:51.873Z,61.88
2018-02-04T08:32:57.384Z,56.25
2018-02-04T08:34:03.928Z,56.25
2018-02-04T08:35:10.982Z,56.25
2018-02-04T08:36:15.964Z,56.25
2018-02-04T08:37:21.965Z,56.25
2018-02-04T08:38:28.000Z,61.88
2018-02-04T08:39:34.049Z,73.13
2018-02-04T08:40:39.552Z,78.75
2018-02-04T08:41:46.069Z,78.75
2018-02-04T08:42:51.568Z,78.75
2018-02-04T08:43:58.085Z,78.75
2018-02-04T08:45:04.144Z,78.75
2018-02-04T08:46:10.157Z,78.75
2018-02-04T08:47:15.638Z,73.13
2018-02-04T08:48:21.662Z,67.50
2018-02-04T08:49:28.232Z,61.88
2018-02-04T08:50:34.259Z,61.88
2018-02-04T08:51:40.265Z,61.88
2018-02-04T08:52:46.252Z,56.25
2018-02-04T08:53:52.283Z,56.25
2018-02-04T08:54:58.347Z,56.25
2018-02-04T08:56:05.336Z,50.63
2018-02-04T08:57:09.857Z,50.63
2018-02-04T08:58:15.880Z,50.63
2018-02-04T08:59:22.885Z,50.63
2018-02-04T09:00:28.923Z,45.00
2018-02-04T09:01:34.459Z,45.00
2018-02-04T09:02:40.505Z,45.00
2018-02-04T09:03:46.511Z,45.00
2018-02-04T09:04:52.503Z,45.00
2018-02-04T09:05:58.506Z,45.00
2018-02-04T09:07:04.040Z,45.00
2018-02-04T09:08:10.048Z,45.00
2018-02-04T09:09:16.565Z,50.63
2018-02-04T09:10:22.109Z,50.63
2018-02-04T09:11:28.118Z,50.63
2018-02-04T09:12:34.617Z,56.25
2018-02-04T09:13:40.166Z,56.25
2018-02-04T09:14:46.661Z,56.25
2018-02-04T09:15:52.729Z,56.25
2018-02-04T09:16:58.227Z,61.88
2018-02-04T09:18:04.729Z,61.88
2018-02-04T09:19:10.782Z,67.50
2018-02-04T09:20:16.794Z,67.50
2018-02-04T09:21:22.805Z,73.13
2018-02-04T09:22:28.338Z,73.13
2018-02-04T09:23:34.918Z,78.75
2018-02-04T09:24:40.418Z,84.38
2018-02-04T09:25:46.915Z,90.00
2018-02-04T09:26:52.922Z,95.63
2018-02-04T09:27:59.009Z,101.25
2018-02-04T09:29:04.985Z,106.88
2018-02-04T09:30:11.005Z,112.50
2018-02-04T09:31:17.033Z,112.50
2018-02-04T09:32:23.062Z,118.13
2018-02-04T09:33:29.177Z,118.13
2018-02-04T09:34:35.221Z,118.13
2018-02-04T09:35:40.729Z,118.13
2018-02-04T09:36:47.159Z,112.50
2018-02-04T09:37:52.693Z,112.50
2018-02-04T09:38:59.254Z,106.88
2018-02-04T09:40:05.266Z,101.25
2018-02-04T09:41:11.277Z,101.25
2018-02-04T09:42:16.814Z,101.25
2018-02-04T09:43:23.344Z,101.25
2018-02-04T09:44:29.392Z,106.88
2018-02-04T09:45:34.918Z,106.88
2018-02-04T09:46:40.926Z,101.25
2018-02-04T09:47:46.964Z,101.25
2018-02-04T09:48:53.515Z,101.25
2018-02-04T09:49:59.061Z,101.25
2018-02-04T09:51:06.569Z,106.88
2018-02-04T09:52:11.593Z,106.88
2018-02-04T09:53:17.638Z,106.88
2018-02-04T09:54:23.668Z,106.88
2018-02-04T09:55:29.776Z,106.88
2018-02-04T09:56:35.751Z,101.25
2018-02-04T09:57:41.745Z,101.25
2018-02-04T09:58:47.828Z,101.25
2018-02-04T09:59:53.812Z,95.63
2018-02-04T10:00:59.862Z,95.63
2018-02-04T10:02:05.909Z,90.00
2018-02-04T10:03:11.961Z,84.38
2018-02-04T10:04:17.960Z,78.75
2018-02-04T10:05:23.502Z,73.13
2018-02-04T10:06:30.022Z,67.50
2018-02-04T10:07:36.035Z,61.88
2018-02-04T10:08:42.071Z,61.88
2018-02-04T10:09:47.625Z,56.25
2018-02-04T10:10:53.649Z,56.25
2018-02-04T10:12:00.152Z,50.63
2018-02-04T10:13:05.669Z,50.63
2018-02-04T10:14:12.188Z,45.00
2018-02-04T10:15:18.275Z,45.00
2018-02-04T10:16:24.258Z,45.00
2018-02-04T10:17:29.765Z,39.38
2018-02-04T10:18:36.257Z,39.38
2018-02-04T10:19:42.315Z,39.38
2018-02-04T10:20:48.354Z,33.75
2018-02-04T10:21:54.346Z,33.75
2018-02-04T10:23:00.367Z,33.75
2018-02-04T10:24:06.469Z,33.75
2018-02-04T10:25:12.733Z,39.38
2018-02-04T10:26:17.965Z,39.38
2018-02-04T10:27:24.465Z,39.38
2018-02-04T10:28:30.482Z,39.38
2018-02-04T10:29:36.528Z,45.00
2018-02-04T10:30:42.538Z,56.25
2018-02-04T10:31:48.506Z,61.88
2018-02-04T10:32:55.518Z,73.13
2018-02-04T10:34:00.546Z,78.75
2018-02-04T10:35:06.619Z,84.38
2018-02-04T10:36:12.672Z,95.63
2018-02-04T10:37:18.727Z,101.25
2018-02-04T10:38:24.619Z,112.50
2018-02-04T10:39:30.672Z,123.75
2018-02-04T10:40:36.718Z,123.75
2018-02-04T10:41:42.724Z,129.38
2018-02-04T10:42:48.735Z,129.38
2018-02-04T10:43:54.785Z,129.38
2018-02-04T10:45:00.303Z,129.38
2018-02-04T10:46:06.855Z,129.38
2018-02-04T10:47:12.896Z,135.00
2018-02-04T10:48:18.942Z,140.63
2018-02-04T10:49:24.933Z,151.88
2018-02-04T10:50:30.990Z,168.75
2018-02-04T10:51:37.029Z,174.38
2018-02-04T10:52:43.032Z,180.00
2018-02-04T10:53:49.069Z,180.00
2018-02-04T10:54:54.598Z,174.38
2018-02-04T10:56:01.155Z,168.75
2018-02-04T10:57:07.203Z,180.00
2018-02-04T10:58:12.726Z,185.63
2018-02-04T10:59:19.244Z,185.63
2018-02-04T11:00:26.322Z,185.63
2018-02-04T11:01:31.422Z,185.63
2018-02-04T11:02:37.386Z,191.25
2018-02-04T11:03:43.454Z,191.25
2018-02-04T11:04:49.510Z,196.88
2018-02-04T11:05:55.607Z,202.50
2018-02-04T11:07:01.090Z,208.13
2018-02-04T11:08:07.682Z,213.75
2018-02-04T11:09:13.682Z,219.38
2018-02-04T11:10:19.763Z,225.00
2018-02-04T11:11:25.268Z,225.00
2018-02-04T11:12:31.326Z,219.38
2018-02-04T11:13:37.881Z,213.75
2018-02-04T11:14:43.954Z,202.50
2018-02-04T11:15:50.997Z,196.88
2018-02-04T11:16:56.053Z,196.88
2018-02-04T11:18:01.592Z,191.25
2018-02-04T11:19:07.667Z,191.25
2018-02-04T11:20:14.200Z,196.88
2018-02-04T11:21:20.275Z,191.25
2018-02-04T11:22:26.302Z,191.25
2018-02-04T11:23:32.367Z,191.25
2018-02-04T11:24:37.904Z,185.63
2018-02-04T11:25:44.066Z,185.63
2018-02-04T11:26:50.499Z,185.63
2018-02-04T11:27:56.564Z,191.25
2018-02-04T11:29:02.106Z,202.50
2018-02-04T11:30:08.656Z,213.75
2018-02-04T11:31:14.736Z,208.13
2018-02-04T11:32:20.757Z,213.75
2018-02-04T11:33:26.318Z,208.13
2018-02-04T11:34:32.853Z,208.13
2018-02-04T11:35:38.955Z,202.50
2018-02-04T11:36:44.980Z,208.13
2018-02-04T11:37:50.578Z,213.75
2018-02-04T11:38:57.093Z,219.38
2018-02-04T11:40:03.196Z,219.38
2018-02-04T11:41:09.263Z,225.00
2018-02-04T11:42:15.293Z,219.38
2018-02-04T11:43:21.316Z,219.38
2018-02-04T11:44:27.390Z,208.13
2018-02-04T11:45:33.458Z,208.13
2018-02-04T11:46:39.551Z,208.13
2018-02-04T11:47:45.546Z,213.75
2018-02-04T11:48:51.598Z,213.75
2018-02-04T11:49:57.678Z,219.38
2018-02-04T11:51:03.767Z,219.38
2018-02-04T11:52:09.815Z,219.38
2018-02-04T11:53:15.878Z,219.38
2018-02-04T11:54:21.948Z,219.38
2018-02-04T11:55:27.993Z,225.00
2018-02-04T11:56:34.050Z,236.25
2018-02-04T11:57:39.587Z,253.13
2018-02-04T11:58:46.203Z,270.00
2018-02-04T11:59:52.251Z,270.00
2018-02-04T12:00:58.309Z,258.75
2018-02-04T12:02:04.335Z,241.88
2018-02-04T12:03:10.441Z,241.88
2018-02-04T12:04:16.488Z,258.75
2018-02-04T12:05:22.547Z,275.63
2018-02-04T12:06:28.619Z,315.00
2018-02-04T12:07:34.682Z,320.63
2018-02-04T12:08:40.765Z,309.38
2018-02-04T12:09:46.822Z,286.88
2018-02-04T12:10:52.925Z,275.63
2018-02-04T12:11:58.969Z,264.38
2018-02-04T12:13:05.163Z,292.50
2018-02-04T12:14:10.618Z,320.63
2018-02-04T12:15:16.698Z,326.25
2018-02-04T12:16:22.790Z,326.25
2018-02-04T12:17:29.357Z,326.25
2018-02-04T12:18:34.927Z,309.38
2018-02-04T12:19:41.022Z,309.38
2018-02-04T12:20:47.107Z,275.63
2018-02-04T12:21:53.653Z,270.00
2018-02-04T12:22:59.249Z,270.00
2018-02-04T12:24:06.836Z,270.00
2018-02-04T12:25:11.896Z,281.25
2018-02-04T12:26:17.497Z,275.63
2018-02-04T12:27:23.578Z,258.75
2018-02-04T12:28:29.636Z,253.13
2018-02-04T12:29:35.712Z,241.88
2018-02-04T12:30:41.809Z,236.25
2018-02-04T12:31:47.864Z,236.25
2018-02-04T12:32:54.425Z,230.63
2018-02-04T12:34:00.014Z,225.00
2018-02-04T12:35:06.093Z,225.00
2018-02-04T12:36:12.680Z,225.00
2018-02-04T12:37:18.222Z,225.00
2018-02-04T12:38:24.297Z,219.38
2018-02-04T12:39:30.856Z,213.75
2018-02-04T12:40:36.468Z,202.50
2018-02-04T12:41:42.508Z,196.88
2018-02-04T12:42:49.155Z,202.50
2018-02-04T12:43:55.163Z,191.25
2018-02-04T12:45:00.705Z,180.00
2018-02-04T12:46:07.303Z,168.75
2018-02-04T12:47:12.834Z,163.13
2018-02-04T12:48:18.886Z,151.88
2018-02-04T12:49:25.439Z,140.63
2018-02-04T12:50:31.534Z,140.63
2018-02-04T12:51:37.191Z,140.63
2018-02-04T12:52:43.120Z,140.63
2018-02-04T12:53:49.175Z,146.25
2018-02-04T12:54:55.227Z,140.63
2018-02-04T12:56:01.312Z,140.63
2018-02-04T12:57:07.341Z,135.00
2018-02-04T12:58:13.402Z,135.00
2018-02-04T12:59:19.445Z,135.00
2018-02-04T13:00:25.497Z,135.00
2018-02-04T13:01:31.573Z,135.00
2018-02-04T13:02:38.090Z,135.00
2018-02-04T13:03:44.136Z,129.38
2018-02-04T13:04:49.689Z,123.75
2018-02-04T13:05:56.245Z,118.13
2018-02-04T13:07:02.782Z,112.50
2018-02-04T13:08:08.315Z,106.88
2018-02-04T13:09:14.370Z,101.25
2018-02-04T13:10:20.428Z,101.25
2018-02-04T13:11:26.473Z,101.25
2018-02-04T13:12:33.510Z,101.25
2018-02-04T13:13:38.058Z,101.25
2018-02-04T13:14:44.606Z,95.63
2018-02-04T13:15:50.672Z,95.63
2018-02-04T13:16:56.690Z,90.00
2018-02-04T13:18:02.780Z,90.00
2018-02-04T13:19:08.765Z,90.00
2018-02-04T13:20:14.790Z,84.38
2018-02-04T13:21:20.840Z,84.38
2018-02-04T13:22:26.851Z,84.38
2018-02-04T13:23:32.921Z,84.38
2018-02-04T13:24:39.915Z,84.38
2018-02-04T13:25:44.990Z,84.38
2018-02-04T13:26:50.980Z,84.38
2018-02-04T13:27:57.010Z,90.00
2018-02-04T13:29:03.112Z,84.38
2018-02-04T13:30:09.165Z,84.38
2018-02-04T13:31:15.171Z,90.00
2018-02-04T13:32:21.188Z,84.38
2018-02-04T13:33:27.237Z,84.38
2018-02-04T13:34:33.193Z,90.00
2018-02-04T13:35:39.258Z,90.00
2018-02-04T13:36:45.332Z,90.00
2018-02-04T13:37:51.330Z,101.25
2018-02-04T13:38:57.306Z,106.88
2018-02-04T13:40:03.372Z,112.50
2018-02-04T13:41:09.407Z,112.50
2018-02-04T13:42:15.509Z,106.88
2018-02-04T13:43:21.453Z,101.25
2018-02-04T13:44:27.052Z,90.00
2018-02-04T13:45:33.489Z,90.00
2018-02-04T13:46:39.540Z,84.38
2018-02-04T13:47:45.579Z,78.75
2018-02-04T13:48:51.620Z,78.75
2018-02-04T13:49:57.623Z,73.13
2018-02-04T13:51:03.785Z,67.50
2018-02-04T13:52:09.654Z,61.88
2018-02-04T13:53:15.744Z,61.88
2018-02-04T13:54:21.719Z,61.88
2018-02-04T13:55:27.800Z,61.88
2018-02-04T13:56:33.782Z,61.88
2018-02-04T13:57:39.784Z,67.50
2018-02-04T13:58:45.842Z,67.50
2018-02-04T13:59:51.867Z,67.50
2018-02-04T14:00:57.875Z,73.13
2018-02-04T14:02:03.900Z,73.13
2018-02-04T14:03:09.930Z,67.50
2018-02-04T14:04:15.942Z,67.50
2018-02-04T14:05:21.946Z,67.50
2018-02-04T14:06:28.012Z,67.50
2018-02-04T14:07:34.025Z,73.13
2018-02-04T14:08:40.018Z,73.13
2018-02-04T14:09:46.041Z,73.13
2018-02-04T14:10:52.114Z,78.75
2018-02-04T14:11:59.191Z,78.75
2018-02-04T14:13:04.157Z,78.75
2018-02-04T14:14:10.174Z,78.75
2018-02-04T14:15:16.215Z,78.75
2018-02-04T14:16:22.216Z,78.75
2018-02-04T14:17:28.289Z,84.38
2018-02-04T14:18:34.239Z,84.38
2018-02-04T14:19:40.295Z,84.38
2018-02-04T14:20:46.285Z,84.38